P20 weather

Avi Suquilla Airport
Parker, Arizona, United States

Public forecast

Using degrees Fahrenheit for public forecast. Weather courtesy of forecast.io.

METAR (pilot weather report)

Closest report is Lake Havasu City Airport, 25.6 nm (47.4 km) N. Retrieved 2019/06/20 10:30 UTC (30 minutes ago):

KHII 201030Z AUTO 12008KT 10SM CLR 30/02 A2976 RMK AO2

TAF (pilot weather forecast)

Closest forecast is Blythe Airport, 38.9 nm (72.0 km) SW. Retrieved 2019/06/20 06:22 UTC (5 hours ago):

TAF KBLH 200520Z 2006/2106 19010KT P6SM SKC FM201800 20020G26KT P6SM SKC